Time;durP1;ratioP1;P1;durP2;ratioP2;P2;SDS_P1;SDS_P2;PMS_P1;PMS_P2;Temp;Humidity;BMP_temperature;BMP_pressure;BME280_temperature;BME280_humidity;BME280_pressure;Samples;Min_cycle;Max_cycle;Signal;HPM_P1;HPM_P2
2023/02/03 00:02:22;;;;;;;4.60;1.50;;;;;;;9.70;73.33;102850.09;5074692;28;20054;-74
2023/02/03 00:04:49;;;;;;;7.70;1.63;;;;;;;9.62;74.72;102856.06;5071543;28;20057;-74
2023/02/03 00:07:17;;;;;;;3.28;1.40;;;;;;;9.92;73.91;102862.75;5073017;28;20080;-73
2023/02/03 00:09:45;;;;;;;6.65;1.75;;;;;;;9.90;73.88;102861.38;5065183;28;20059;-73
2023/02/03 00:12:12;;;;;;;5.70;1.80;;;;;;;9.85;74.13;102853.88;5071818;28;20048;-72
2023/02/03 00:14:39;;;;;;;5.97;1.67;;;;;;;9.88;73.85;102860.78;5058822;28;20048;-72
2023/02/03 00:17:07;;;;;;;6.57;2.03;;;;;;;9.96;73.96;102854.81;5063569;28;20408;-73
2023/02/03 00:19:34;;;;;;;7.72;1.55;;;;;;;9.87;73.84;102859.94;5060032;28;20404;-74
2023/02/03 00:22:01;;;;;;;6.00;1.70;;;;;;;9.77;74.66;102859.00;5053969;28;20045;-72
2023/02/03 00:24:28;;;;;;;6.32;2.00;;;;;;;9.64;74.94;102857.44;5058756;28;20044;-74
2023/02/03 00:26:56;;;;;;;6.35;1.63;;;;;;;9.74;75.00;102862.25;5029797;28;20060;-72
2023/02/03 00:29:24;;;;;;;5.25;1.80;;;;;;;9.80;75.05;102859.31;5074502;28;20056;-72
2023/02/03 00:31:52;;;;;;;5.72;1.95;;;;;;;9.61;75.54;102851.63;5071394;28;20048;-72
2023/02/03 00:34:20;;;;;;;9.35;1.73;;;;;;;9.80;75.73;102851.06;5056643;28;20123;-72
2023/02/03 00:36:48;;;;;;;7.80;1.75;;;;;;;9.83;75.27;102852.47;5073565;28;20056;-72
2023/02/03 00:39:15;;;;;;;5.10;1.50;;;;;;;9.80;75.18;102852.97;5074751;28;20063;-72
2023/02/03 00:41:42;;;;;;;6.90;1.50;;;;;;;9.89;74.26;102854.19;5058185;28;20408;-73
2023/02/03 00:44:10;;;;;;;6.38;2.05;;;;;;;9.85;74.75;102845.59;5065565;28;20064;-73
2023/02/03 00:46:37;;;;;;;5.40;1.45;;;;;;;9.63;74.72;102844.78;5066139;28;20514;-73
2023/02/03 00:49:05;;;;;;;4.50;1.48;;;;;;;9.65;75.72;102836.28;5072668;28;20076;-72
2023/02/03 00:51:33;;;;;;;5.00;1.50;;;;;;;9.82;74.20;102832.38;5058764;28;20048;-72
2023/02/03 00:54:01;;;;;;;4.95;1.38;;;;;;;9.67;75.23;102829.44;5061955;28;20372;-73
2023/02/03 00:56:29;;;;;;;9.00;1.63;;;;;;;9.87;74.63;102826.91;5067912;28;20052;-71
2023/02/03 00:58:56;;;;;;;4.90;1.58;;;;;;;10.36;73.17;102835.19;5073990;28;20049;-73
2023/02/03 01:01:25;;;;;;;4.47;1.23;;;;;;;10.02;72.56;102829.03;5075000;28;20044;-72
2023/02/03 01:03:55;;;;;;;4.80;1.53;;;;;;;9.80;73.55;102822.69;5073054;28;20079;-72
2023/02/03 01:06:23;;;;;;;6.32;1.58;;;;;;;10.08;72.83;102817.84;5053206;28;20300;-72
2023/02/03 01:08:51;;;;;;;5.72;1.45;;;;;;;10.05;72.03;102811.97;5057343;28;20443;-73
2023/02/03 01:11:21;;;;;;;6.40;1.60;;;;;;;9.97;72.47;102807.75;5073304;28;20522;-72
2023/02/03 01:13:49;;;;;;;;;;;;;;;9.74;73.55;102805.31;5072299;28;20067;-72
2023/02/03 01:16:18;;;;;;;7.63;1.77;;;;;;;9.73;74.37;102800.03;5073656;28;19928;-71
2023/02/03 01:18:46;;;;;;;6.78;1.67;;;;;;;9.78;74.03;102800.94;5074000;28;20040;-73
2023/02/03 01:21:19;;;;;;;4.75;1.58;;;;;;;9.59;74.80;102785.03;5039513;28;20044;-73
2023/02/03 01:23:47;;;;;;;5.25;1.50;;;;;;;9.68;75.06;102789.81;5070733;28;20041;-72
2023/02/03 01:26:17;;;;;;;4.32;1.35;;;;;;;9.67;74.67;102782.66;5050168;28;20048;-73
2023/02/03 01:28:52;;;;;;;8.18;1.30;;;;;;;9.53;74.81;102784.13;5074252;28;20056;-71
2023/02/03 01:31:40;;;;;;;3.40;1.30;;;;;;;9.60;75.10;102783.94;5070886;28;20049;-73
2023/02/03 01:34:15;;;;;;;4.70;1.30;;;;;;;9.59;74.17;102774.03;5074114;28;20254;-72
2023/02/03 01:36:42;;;;;;;3.60;1.48;;;;;;;9.50;74.70;102783.81;5072584;28;20067;-73
2023/02/03 01:39:10;;;;;;;8.95;1.63;;;;;;;9.40;74.52;102778.16;5067989;28;20072;-73
2023/02/03 01:41:38;;;;;;;6.25;1.30;;;;;;;9.38;74.35;102775.66;5073816;28;20049;-72
2023/02/03 01:44:44;;;;;;;7.85;1.40;;;;;;;9.29;74.51;102771.72;5070638;28;20053;-72
2023/02/03 01:47:32;;;;;;;5.13;1.38;;;;;;;9.40;74.28;102779.00;5041637;28;20053;-72
2023/02/03 01:50:10;;;;;;;5.53;1.27;;;;;;;9.42;73.91;102774.09;5070093;28;20063;-71
2023/02/03 01:52:40;;;;;;;4.30;1.27;;;;;;;9.48;73.94;102761.22;5072243;28;20045;-72
2023/02/03 01:55:11;;;;;;;4.05;1.30;;;;;;;9.59;73.25;102746.53;5074829;28;20037;-71
2023/02/03 01:57:45;;;;;;;6.90;1.25;;;;;;;9.57;73.08;102743.19;5061376;28;20053;-72
2023/02/03 02:00:12;;;;;;;5.03;1.10;;;;;;;9.91;72.38;102730.88;5072908;28;20045;-70
2023/02/03 02:02:42;;;;;;;5.22;1.15;;;;;;;10.00;71.94;102730.19;5075937;28;20048;-72
2023/02/03 02:05:23;;;;;;;4.40;1.17;;;;;;;9.85;71.60;102720.94;5061169;28;20052;-72
2023/02/03 02:07:51;;;;;;;4.80;1.27;;;;;;;9.85;71.42;102729.19;5069817;28;20496;-72
2023/02/03 02:10:18;;;;;;;6.10;1.63;;;;;;;9.86;70.86;102731.69;5070979;28;20059;-72
2023/02/03 02:12:46;;;;;;;4.35;1.38;;;;;;;9.71;71.45;102745.25;5077530;28;20048;-72
2023/02/03 02:15:14;;;;;;;5.70;1.17;;;;;;;9.77;70.88;102736.00;5075618;28;20519;-72
2023/02/03 02:18:00;;;;;;;2.95;1.20;;;;;;;9.83;70.35;102739.63;5076803;28;20053;-73
2023/02/03 02:21:01;;;;;;;6.63;1.45;;;;;;;9.83;70.52;102742.38;5077804;28;20056;-72
2023/02/03 02:23:36;;;;;;;;;;;;;;;9.71;69.82;102744.44;5067534;28;20048;-72
2023/02/03 02:26:18;;;;;;;6.45;1.30;;;;;;;9.79;70.13;102743.97;5067647;28;19928;-72
2023/02/03 02:29:04;;;;;;;5.20;0.90;;;;;;;9.79;69.65;102738.47;5076222;28;20499;-72
2023/02/03 02:31:43;;;;;;;5.43;1.15;;;;;;;9.99;69.34;102741.41;5047926;28;20072;-72
2023/02/03 02:34:19;;;;;;;4.43;1.07;;;;;;;9.93;68.75;102736.97;5047129;28;20415;-73
2023/02/03 02:37:10;;;;;;;4.22;1.27;;;;;;;10.13;68.09;102742.69;5052629;28;20056;-73
2023/02/03 02:39:47;;;;;;;3.75;0.98;;;;;;;10.03;68.74;102737.06;5058699;28;20052;-73
2023/02/03 02:42:22;;;;;;;4.60;1.20;;;;;;;9.80;68.97;102734.63;5069264;28;20045;-73
2023/02/03 02:45:06;;;;;;;2.50;0.80;;;;;;;9.64;69.66;102725.38;5052238;28;20059;-72
2023/02/03 02:47:34;;;;;;;7.80;1.25;;;;;;;9.64;69.36;102730.06;5057048;28;20063;-72
2023/02/03 02:50:10;;;;;;;5.00;1.25;;;;;;;9.67;69.70;102732.28;5071173;28;20044;-73
2023/02/03 02:52:40;;;;;;;4.90;1.00;;;;;;;9.62;69.90;102729.50;5058619;28;20044;-72
2023/02/03 02:55:16;;;;;;;3.33;1.42;;;;;;;9.74;69.94;102724.66;5056050;28;20474;-72
2023/02/03 02:57:45;;;;;;;1.85;1.05;;;;;;;9.72;69.52;102721.34;5077734;28;20052;-73
2023/02/03 03:00:12;;;;;;;3.83;1.10;;;;;;;9.68;70.10;102725.69;5076582;28;20048;-73
2023/02/03 03:02:40;;;;;;;2.92;1.00;;;;;;;9.62;69.35;102735.00;5059157;28;20071;-72
2023/02/03 03:05:09;;;;;;;4.78;0.90;;;;;;;9.51;69.97;102738.69;5076392;28;20048;-71
2023/02/03 03:07:50;;;;;;;3.25;1.30;;;;;;;9.69;69.75;102739.19;5055571;28;20064;-72
2023/02/03 03:10:22;;;;;;;3.65;1.05;;;;;;;9.69;69.64;102744.69;5059417;28;20048;-72
2023/02/03 03:12:54;;;;;;;3.20;1.30;;;;;;;9.76;69.36;102747.25;5058539;28;20056;-72
2023/02/03 03:15:26;;;;;;;3.28;1.02;;;;;;;9.73;69.20;102750.50;5053969;28;20053;-72
2023/02/03 03:17:58;;;;;;;4.38;1.13;;;;;;;9.70;69.21;102748.28;5077422;28;20052;-71
2023/02/03 03:20:26;;;;;;;3.47;1.20;;;;;;;9.66;69.45;102758.97;5033327;28;20049;-72
2023/02/03 03:22:59;;;;;;;4.13;1.50;;;;;;;9.63;69.74;102770.50;5076035;28;20044;-72
2023/02/03 03:25:35;;;;;;;2.13;0.80;;;;;;;9.93;68.44;102765.34;5070146;28;20045;-72
2023/02/03 03:28:07;;;;;;;3.05;1.02;;;;;;;9.76;68.57;102783.03;5058802;28;20045;-72
2023/02/03 03:30:36;;;;;;;3.33;1.05;;;;;;;9.78;68.92;102797.38;5075202;28;20041;-72
2023/02/03 03:33:05;;;;;;;3.03;1.00;;;;;;;9.60;69.30;102793.03;5075959;28;20048;-73
2023/02/03 03:35:45;;;;;;;4.57;1.00;;;;;;;9.61;69.82;102791.09;5063411;28;20060;-73
2023/02/03 03:38:21;;;;;;;4.43;1.23;;;;;;;9.70;69.35;102795.06;5074503;28;20075;-72
2023/02/03 03:40:54;;;;;;;3.33;0.85;;;;;;;9.69;69.21;102804.41;5070214;28;20411;-72
2023/02/03 03:43:25;;;;;;;6.40;1.45;;;;;;;9.81;68.94;102816.97;5042572;28;20365;-72
2023/02/03 03:46:12;;;;;;;3.05;0.90;;;;;;;9.69;68.48;102821.72;5076890;28;20052;-72
2023/02/03 03:48:51;;;;;;;5.85;0.80;;;;;;;9.61;69.01;102822.19;5059363;28;20049;-72
2023/02/03 03:51:26;;;;;;;3.78;0.90;;;;;;;9.45;69.32;102830.50;5058965;28;20079;-72
2023/02/03 03:53:55;;;;;;;4.75;1.00;;;;;;;9.56;69.39;102824.88;5056518;28;20052;-72
2023/02/03 03:56:40;;;;;;;2.67;0.90;;;;;;;9.48;69.12;102819.84;5076006;28;20051;-72
2023/02/03 03:59:08;;;;;;;2.85;1.10;;;;;;;9.61;68.91;102816.69;5075558;28;20044;-72
2023/02/03 04:01:37;;;;;;;3.03;0.90;;;;;;;9.46;68.99;102810.16;5075030;28;20044;-73
2023/02/03 04:04:08;;;;;;;5.93;1.10;;;;;;;9.33;69.08;102807.81;5056342;28;20515;-72
2023/02/03 04:06:37;;;;;;;2.95;0.90;;;;;;;9.36;69.97;102801.78;5058016;28;20053;-73
2023/02/03 04:09:04;;;;;;;2.67;0.93;;;;;;;9.46;69.01;102801.91;5072070;28;20052;-73
2023/02/03 04:14:18;;;;;;;4.57;0.88;;;;;;;9.44;69.73;102784.81;5075642;28;20060;-72
2023/02/03 04:16:45;;;;;;;4.07;1.08;;;;;;;9.53;69.35;102773.13;5057473;28;20061;-71
2023/02/03 04:19:12;;;;;;;2.03;0.82;;;;;;;9.46;68.90;102774.41;5074897;28;20044;-72
2023/02/03 04:21:39;;;;;;;3.50;0.90;;;;;;;9.39;69.02;102782.00;5075881;28;20036;-72
2023/02/03 04:24:07;;;;;;;2.83;0.95;;;;;;;9.44;68.77;102791.16;5057466;28;20053;-72
2023/02/03 04:26:34;;;;;;;2.50;1.00;;;;;;;9.67;68.87;102793.66;5074274;28;20060;-72
2023/02/03 04:29:01;;;;;;;2.50;0.93;;;;;;;9.90;67.86;102784.28;5073201;28;20049;-72
2023/02/03 04:31:29;;;;;;;3.67;0.80;;;;;;;9.90;67.66;102781.53;5075509;28;20044;-72
2023/02/03 04:33:56;;;;;;;4.28;0.80;;;;;;;9.78;68.83;102767.91;5076291;28;20079;-72
2023/02/03 04:36:23;;;;;;;5.18;0.80;;;;;;;9.92;68.37;102765.59;5056609;28;20049;-72
2023/02/03 04:38:50;;;;;;;3.90;0.93;;;;;;;9.64;69.56;102757.56;5060717;28;20064;-72
2023/02/03 04:41:18;;;;;;;4.05;1.40;;;;;;;10.05;68.53;102766.00;5072808;28;20044;-72
2023/02/03 04:43:45;;;;;;;1.67;0.70;;;;;;;9.84;69.25;102764.13;5062985;28;20064;-73
2023/02/03 04:46:12;;;;;;;1.77;0.80;;;;;;;9.84;70.61;102766.88;5071902;28;20048;-72
2023/02/03 04:48:40;;;;;;;2.50;0.80;;;;;;;9.64;70.26;102774.91;5061015;28;20052;-73
2023/02/03 04:51:08;;;;;;;1.48;0.65;;;;;;;9.83;70.68;102767.97;5070189;28;20041;-72
2023/02/03 04:53:35;;;;;;;4.18;0.88;;;;;;;9.47;70.96;102767.81;5071583;28;20155;-72
2023/02/03 04:56:03;;;;;;;6.05;1.10;;;;;;;9.40;71.17;102781.75;5074606;28;20036;-72
2023/02/03 04:58:30;;;;;;;2.15;0.70;;;;;;;9.26;71.89;102782.41;5074902;28;20075;-72
2023/02/03 05:00:57;;;;;;;1.27;0.70;;;;;;;9.30;72.13;102775.28;5072741;28;20071;-72
2023/02/03 05:03:25;;;;;;;5.32;1.25;;;;;;;9.62;71.24;102779.00;5075509;28;20059;-71
2023/02/03 05:05:55;;;;;;;2.75;0.70;;;;;;;9.72;70.59;102773.63;5073054;28;20384;-71
2023/02/03 05:08:23;;;;;;;3.92;1.13;;;;;;;9.59;70.59;102771.28;5064627;28;20057;-71
2023/02/03 05:10:51;;;;;;;1.92;0.82;;;;;;;9.49;70.56;102768.38;5067199;28;20051;-72
2023/02/03 05:13:18;;;;;;;4.47;1.02;;;;;;;9.52;70.83;102781.66;5073944;28;20071;-72
2023/02/03 05:15:45;;;;;;;5.72;1.23;;;;;;;9.48;70.87;102780.50;5074598;28;20155;-72
2023/02/03 05:18:13;;;;;;;2.97;1.05;;;;;;;9.47;71.07;102785.16;5050324;28;20048;-72
2023/02/03 05:20:40;;;;;;;2.10;0.90;;;;;;;9.69;70.01;102799.72;5073355;28;20515;-73
2023/02/03 05:23:08;;;;;;;4.80;1.10;;;;;;;9.68;70.02;102800.81;5073773;28;20040;-72
2023/02/03 05:25:35;;;;;;;3.03;0.90;;;;;;;9.71;69.63;102803.06;5074165;28;20044;-71
2023/02/03 05:28:02;;;;;;;2.92;1.00;;;;;;;9.89;69.15;102807.38;5054820;28;20055;-72
2023/02/03 05:30:30;;;;;;;2.92;1.10;;;;;;;9.79;69.34;102821.03;5074608;28;20063;-72
2023/02/03 05:32:57;;;;;;;4.00;1.10;;;;;;;9.70;69.82;102828.06;5073954;28;20063;-71
2023/02/03 05:35:24;;;;;;;4.32;1.40;;;;;;;9.66;69.90;102826.94;5067490;28;20057;-73
2023/02/03 05:37:51;;;;;;;5.18;1.13;;;;;;;9.76;69.69;102824.31;5072435;28;20055;-71
2023/02/03 05:43:04;;;;;;;3.85;0.82;;;;;;;9.80;69.62;102822.69;5074915;28;20040;-72
2023/02/03 05:45:31;;;;;;;3.75;1.13;;;;;;;9.73;69.38;102831.16;5074287;28;20415;-72
2023/02/03 05:48:01;;;;;;;11.90;1.15;;;;;;;9.60;70.02;102825.19;5062110;28;20049;-72
2023/02/03 05:50:32;;;;;;;4.82;1.08;;;;;;;9.72;69.79;102821.25;5061608;28;20048;-72
2023/02/03 05:53:08;;;;;;;2.72;1.02;;;;;;;9.68;69.94;102813.75;5071691;28;20044;-72
2023/02/03 05:55:43;;;;;;;4.05;1.00;;;;;;;9.77;70.47;102825.97;5061743;28;20049;-73
2023/02/03 05:58:10;;;;;;;3.85;0.85;;;;;;;9.76;69.96;102829.81;5073743;28;20503;-72
2023/02/03 06:00:37;;;;;;;6.53;1.23;;;;;;;9.70;71.27;102837.16;5074646;28;20056;-72
2023/02/03 06:03:05;;;;;;;2.67;1.08;;;;;;;9.56;71.19;102838.63;5072945;28;20044;-73
2023/02/03 06:05:33;;;;;;;1.90;0.85;;;;;;;9.42;71.88;102839.25;5072989;28;20063;-73
2023/02/03 06:08:00;;;;;;;3.63;1.10;;;;;;;9.59;72.69;102829.88;5040940;28;20049;-72
2023/02/03 06:10:28;;;;;;;3.35;0.82;;;;;;;9.48;72.63;102827.25;5070936;28;20060;-73
2023/02/03 06:12:55;;;;;;;2.63;1.10;;;;;;;9.52;73.10;102826.47;5056357;28;20523;-73
2023/02/03 06:15:23;;;;;;;2.97;1.02;;;;;;;9.55;73.44;102814.97;5074636;28;20063;-72
2023/02/03 06:17:50;;;;;;;4.47;1.13;;;;;;;9.56;73.50;102813.03;5073240;28;20049;-73
2023/02/03 06:20:19;;;;;;;3.28;1.15;;;;;;;9.45;74.05;102814.00;5071803;28;20040;-72
2023/02/03 06:22:46;;;;;;;4.40;1.27;;;;;;;9.35;74.75;102809.19;5073427;28;20048;-72
2023/02/03 06:25:13;;;;;;;5.50;1.45;;;;;;;9.52;74.54;102806.41;5073049;28;20495;-72
2023/02/03 06:27:41;;;;;;;6.32;1.45;;;;;;;9.38;75.10;102807.88;5051689;28;20052;-72
2023/02/03 06:30:10;;;;;;;3.67;1.58;;;;;;;9.25;75.80;102816.47;5073571;28;20060;-72
2023/02/03 06:32:37;;;;;;;5.00;1.27;;;;;;;9.43;76.13;102811.50;5056266;28;20045;-74
2023/02/03 06:35:05;;;;;;;2.15;1.00;;;;;;;9.62;74.90;102817.53;5038056;28;20053;-73
2023/02/03 06:37:32;;;;;;;5.15;1.55;;;;;;;9.73;74.35;102816.53;5055443;28;20476;-73
2023/02/03 06:40:00;;;;;;;9.50;1.92;;;;;;;9.56;74.73;102816.63;5053278;28;20065;-73
2023/02/03 06:42:27;;;;;;;3.90;1.17;;;;;;;9.41;74.71;102818.34;5071955;28;20048;-72
2023/02/03 06:44:54;;;;;;;3.72;1.30;;;;;;;9.43;75.28;102821.69;5064275;28;20068;-74
2023/02/03 06:47:21;;;;;;;5.72;1.88;;;;;;;9.46;75.18;102819.25;5074494;28;20052;-72
2023/02/03 06:49:48;;;;;;;4.30;1.58;;;;;;;9.35;75.80;102820.19;5059377;28;20798;-73
2023/02/03 06:52:16;;;;;;;4.50;1.60;;;;;;;9.25;77.09;102819.22;5076386;28;20052;-72
2023/02/03 06:54:43;;;;;;;7.88;1.50;;;;;;;9.54;76.11;102815.22;5068798;28;20413;-72
2023/02/03 06:57:10;;;;;;;3.70;1.27;;;;;;;9.45;77.41;102811.25;5073660;28;20052;-72
2023/02/03 06:59:38;;;;;;;5.28;1.60;;;;;;;9.37;77.70;102817.19;5076310;28;20056;-72
2023/02/03 07:02:08;;;;;;;6.20;1.55;;;;;;;9.20;78.75;102805.41;5075818;28;20495;-72
2023/02/03 07:04:35;;;;;;;6.68;1.73;;;;;;;9.39;78.84;102820.53;5070542;28;20432;-73
2023/02/03 07:07:03;;;;;;;4.22;1.80;;;;;;;9.21;79.18;102823.56;5068425;28;20064;-73
2023/02/03 07:09:30;;;;;;;4.70;1.83;;;;;;;9.15;79.41;102833.66;5072150;28;20045;-72
2023/02/03 07:11:57;;;;;;;6.18;1.85;;;;;;;9.14;79.40;102831.97;5077213;28;20047;-73
2023/02/03 07:14:25;;;;;;;5.82;1.40;;;;;;;9.16;79.34;102843.56;5072023;28;20049;-74
2023/02/03 07:16:53;;;;;;;3.90;1.40;;;;;;;9.18;79.44;102840.56;5062491;28;20061;-72
2023/02/03 07:19:20;;;;;;;3.72;1.95;;;;;;;8.89;80.54;102842.59;5061562;28;20052;-73
2023/02/03 07:21:47;;;;;;;4.13;1.70;;;;;;;9.24;79.75;102834.88;5070026;28;20052;-74
2023/02/03 07:24:15;;;;;;;4.15;1.70;;;;;;;9.29;79.07;102837.72;5056374;28;20424;-74
2023/02/03 07:26:51;;;;;;;4.28;1.60;;;;;;;9.27;79.23;102839.91;5067850;28;20845;-74
2023/02/03 07:29:19;;;;;;;5.47;1.92;;;;;;;9.09;79.65;102848.41;5058356;28;20053;-76
2023/02/03 07:31:46;;;;;;;5.82;1.70;;;;;;;9.24;79.67;102842.31;5067279;28;20256;-74
2023/02/03 07:34:14;;;;;;;8.20;1.92;;;;;;;9.28;78.82;102851.69;5063416;28;20056;-75
2023/02/03 07:36:41;;;;;;;9.27;2.13;;;;;;;9.13;80.08;102853.13;5064789;28;20124;-75
2023/02/03 07:39:08;;;;;;;4.43;1.40;;;;;;;9.42;79.72;102853.00;5074192;28;20053;-74
2023/02/03 07:41:36;;;;;;;5.30;1.60;;;;;;;9.31;78.75;102846.53;5085321;28;20044;-75
2023/02/03 07:44:04;;;;;;;7.43;1.80;;;;;;;9.30;79.08;102849.53;5062552;28;20045;-76
2023/02/03 07:46:31;;;;;;;3.70;1.73;;;;;;;9.28;78.75;102846.19;5056866;28;20370;-74
2023/02/03 07:48:58;;;;;;;5.50;1.80;;;;;;;9.19;79.35;102842.25;5077235;28;20075;-74
2023/02/03 07:51:26;;;;;;;6.68;1.90;;;;;;;9.09;79.59;102854.75;5064406;28;20068;-74
2023/02/03 07:53:53;;;;;;;8.75;2.20;;;;;;;9.16;78.91;102853.72;5056009;28;20413;-75
2023/02/03 07:56:20;;;;;;;5.80;1.63;;;;;;;9.18;79.01;102848.81;5051287;28;20060;-73
2023/02/03 07:58:51;;;;;;;8.48;2.25;;;;;;;9.97;80.50;102843.53;5063763;28;20044;-74
2023/02/03 08:01:18;;;;;;;12.55;2.85;;;;;;;10.16;77.51;102846.84;5047534;28;20049;-73
2023/02/03 08:03:46;;;;;;;5.40;2.30;;;;;;;10.85;73.54;102861.53;5061571;28;20064;-75
2023/02/03 08:06:13;;;;;;;6.78;2.15;;;;;;;10.83;71.90;102858.22;5069451;28;20069;-70
2023/02/03 08:08:41;;;;;;;10.60;2.25;;;;;;;10.88;70.61;102861.03;5060091;28;20059;-71
2023/02/03 08:11:08;;;;;;;6.60;1.95;;;;;;;10.92;69.65;102863.00;5064418;28;20064;-73
2023/02/03 08:13:36;;;;;;;7.55;2.58;;;;;;;10.53;70.50;102863.47;5060083;28;20072;-71
2023/02/03 08:16:04;;;;;;;8.85;2.10;;;;;;;10.15;71.81;102865.28;5059378;28;20056;-72
2023/02/03 08:18:31;;;;;;;7.18;1.98;;;;;;;10.01;72.26;102863.97;5060837;28;20075;-72
2023/02/03 08:20:59;;;;;;;7.32;1.95;;;;;;;9.92;72.61;102870.22;5049459;28;20067;-74
2023/02/03 08:23:26;;;;;;;7.03;2.00;;;;;;;9.90;73.04;102872.38;5058865;28;20503;-72
2023/02/03 08:25:54;;;;;;;6.07;2.13;;;;;;;9.84;73.11;102881.66;5060785;28;20049;-72
2023/02/03 08:28:21;;;;;;;11.18;2.80;;;;;;;10.00;73.18;102891.75;5058229;28;20417;-72
2023/02/03 08:30:48;;;;;;;8.63;2.25;;;;;;;9.84;73.83;102884.41;5061098;28;20045;-72
2023/02/03 08:33:16;;;;;;;7.22;2.00;;;;;;;9.89;73.73;102888.06;5061714;28;20048;-72
2023/02/03 08:35:47;;;;;;;11.27;2.40;;;;;;;10.05;72.93;102883.56;5058290;28;20060;-71
2023/02/03 08:38:16;;;;;;;8.15;2.50;;;;;;;9.96;73.20;102898.88;5053947;28;20057;-73
2023/02/03 08:40:43;;;;;;;10.38;2.40;;;;;;;10.03;73.35;102897.59;5060559;28;20053;-73
2023/02/03 08:43:10;;;;;;;6.13;1.95;;;;;;;9.87;73.36;102903.16;5056934;28;20044;-74
2023/02/03 08:45:39;;;;;;;8.15;2.13;;;;;;;9.71;74.64;102913.13;5065918;28;20041;-72
2023/02/03 08:48:07;;;;;;;7.95;2.25;;;;;;;9.69;75.45;102914.47;5055665;28;20052;-72
2023/02/03 08:50:34;;;;;;;5.93;1.90;;;;;;;10.00;74.55;102911.03;5058576;28;20126;-74
2023/02/03 08:53:02;;;;;;;6.65;2.00;;;;;;;10.12;74.09;102915.38;5062618;28;20362;-73
2023/02/03 08:55:34;;;;;;;8.90;2.13;;;;;;;9.89;74.29;102920.25;5062664;28;20063;-74
2023/02/03 08:58:05;;;;;;;6.45;1.80;;;;;;;9.85;75.19;102919.91;5050929;28;20052;-73
2023/02/03 09:00:35;;;;;;;6.95;2.05;;;;;;;9.84;75.15;102911.94;5057432;28;20056;-73
2023/02/03 09:03:03;;;;;;;4.82;1.85;;;;;;;9.66;76.79;102918.56;5025685;28;20049;-74
2023/02/03 09:05:30;;;;;;;6.80;1.98;;;;;;;9.88;76.54;102911.19;5061805;28;20059;-74
2023/02/03 09:07:58;;;;;;;5.88;1.73;;;;;;;9.87;76.35;102911.41;5055020;28;20052;-74
2023/02/03 09:10:26;;;;;;;4.15;1.70;;;;;;;10.17;76.30;102906.31;5056746;28;20127;-74
2023/02/03 09:12:55;;;;;;;8.05;2.15;;;;;;;10.31;76.09;102906.75;5057861;28;20048;-74
2023/02/03 09:15:25;;;;;;;5.70;1.90;;;;;;;10.16;76.37;102912.94;5056323;28;20048;-75
2023/02/03 09:17:56;;;;;;;8.65;1.65;;;;;;;10.27;76.64;102920.19;5051139;28;20056;-75
2023/02/03 09:20:24;;;;;;;7.57;1.88;;;;;;;10.19;77.29;102910.50;5060252;28;20052;-74
2023/02/03 09:22:53;;;;;;;4.25;1.65;;;;;;;10.12;77.40;102911.78;5061717;28;20048;-75
2023/02/03 09:25:23;;;;;;;12.93;2.10;;;;;;;9.62;79.51;102922.09;5058631;28;20045;-74
2023/02/03 09:27:51;;;;;;;6.30;1.80;;;;;;;9.77;79.95;102916.78;5056627;28;20064;-75
2023/02/03 09:30:19;;;;;;;3.60;1.52;;;;;;;9.60;80.53;102927.00;5056792;28;20420;-74
2023/02/03 09:32:52;;;;;;;5.97;1.60;;;;;;;9.67;81.04;102916.66;5065209;28;20056;-75
2023/02/03 09:35:21;;;;;;;4.78;1.90;;;;;;;9.98;79.84;102924.22;5056802;28;20041;-77
2023/02/03 09:37:48;;;;;;;6.68;1.95;;;;;;;10.01;79.76;102920.94;5050430;28;20396;-75
2023/02/03 09:40:35;;;;;;;5.55;1.90;;;;;;;9.93;79.89;102927.75;5056095;28;20069;-73
2023/02/03 09:43:23;;;;;;;6.60;2.15;;;;;;;9.97;79.48;102923.38;5059421;28;20032;-75
2023/02/03 09:45:50;;;;;;;6.68;2.50;;;;;;;10.13;79.17;102921.69;5068236;28;20052;-74
2023/02/03 09:48:23;;;;;;;9.35;1.80;;;;;;;10.51;77.81;102924.34;5047257;28;20052;-74
2023/02/03 09:50:54;;;;;;;4.72;1.80;;;;;;;10.69;76.92;102939.66;5058489;28;20052;-74
2023/02/03 09:53:36;;;;;;;7.90;1.80;;;;;;;10.67;76.57;102941.88;5057098;28;20053;-74
2023/02/03 09:56:04;;;;;;;6.57;1.85;;;;;;;10.48;77.26;102946.09;5058881;28;20048;-74
2023/02/03 09:58:33;;;;;;;6.53;1.90;;;;;;;10.15;78.50;102950.66;5024611;28;20045;-73
2023/02/03 10:01:05;;;;;;;5.35;2.15;;;;;;;10.41;78.89;102946.25;5058282;28;20060;-74
2023/02/03 10:03:42;;;;;;;7.35;1.75;;;;;;;10.57;77.57;102942.59;5055233;28;20484;-74
2023/02/03 10:06:26;;;;;;;3.47;1.63;;;;;;;10.54;77.63;102943.13;5046042;28;20056;-73
2023/02/03 10:09:04;;;;;;;6.07;2.00;;;;;;;10.45;78.37;102952.09;5038013;28;20052;-74
2023/02/03 10:11:53;;;;;;;5.97;1.50;;;;;;;10.79;77.30;102951.63;5045873;28;20055;-74
2023/02/03 10:14:46;;;;;;;7.22;1.75;;;;;;;10.63;77.21;102949.00;5053947;28;20519;-74
2023/02/03 10:17:32;;;;;;;7.45;2.08;;;;;;;10.65;77.77;102949.56;5061228;28;20496;-73
2023/02/03 10:20:04;;;;;;;5.28;2.05;;;;;;;10.66;77.13;102942.94;5052502;28;20049;-73
2023/02/03 10:22:36;;;;;;;4.72;2.15;;;;;;;10.59;76.96;102950.59;5056304;28;20056;-74
2023/02/03 10:25:14;;;;;;;6.75;1.83;;;;;;;10.91;77.16;102957.81;5056692;28;20076;-73
2023/02/03 10:27:42;;;;;;;3.55;1.60;;;;;;;11.03;75.19;102957.66;5060821;28;20041;-73
2023/02/03 10:30:22;;;;;;;5.85;1.55;;;;;;;11.00;75.03;102961.75;5047503;28;20048;-73
2023/02/03 10:33:09;;;;;;;4.65;1.67;;;;;;;11.23;74.07;102964.19;5062725;28;20049;-73
2023/02/03 10:36:02;;;;;;;4.43;1.95;;;;;;;11.12;74.26;102954.16;5062669;28;20048;-73
2023/02/03 10:38:56;;;;;;;4.20;1.85;;;;;;;10.91;74.55;102963.31;5069742;28;20056;-74
2023/02/03 10:41:27;;;;;;;4.93;1.70;;;;;;;11.03;74.62;102954.91;5063627;28;20068;-73
2023/02/03 10:43:57;;;;;;;4.72;1.60;;;;;;;11.14;74.38;102962.19;5070556;28;20048;-74
2023/02/03 10:46:29;;;;;;;6.05;1.75;;;;;;;11.15;74.09;102956.41;5062472;28;20072;-75
2023/02/03 10:48:57;;;;;;;3.67;1.48;;;;;;;11.10;73.85;102956.38;5044042;28;20955;-73
2023/02/03 10:51:33;;;;;;;4.03;1.50;;;;;;;10.98;74.85;102965.91;5059922;28;20052;-74
2023/02/03 10:54:04;;;;;;;5.82;1.67;;;;;;;11.02;74.70;102959.59;5052948;28;20047;-75
2023/02/03 10:56:37;;;;;;;4.40;1.60;;;;;;;11.38;73.64;102959.88;5057714;28;20057;-75
2023/02/03 10:59:06;;;;;;;5.22;1.85;;;;;;;11.30;73.38;102958.44;5064509;28;20048;-74
2023/02/03 11:01:40;;;;;;;5.95;1.77;;;;;;;11.45;73.50;102947.53;5051047;28;20060;-74
2023/02/03 11:04:26;;;;;;;7.82;2.53;;;;;;;11.27;73.13;102948.78;5049487;28;20053;-74
2023/02/03 11:07:02;;;;;;;3.28;1.50;;;;;;;11.49;73.08;102937.59;5065763;28;20607;-72
2023/02/03 11:09:36;;;;;;;7.80;2.03;;;;;;;11.24;72.68;102929.97;5059011;28;20045;-73
2023/02/03 11:12:15;;;;;;;8.00;1.70;;;;;;;11.26;73.11;102927.78;5064634;28;20045;-75
2023/02/03 11:14:47;;;;;;;8.85;2.13;;;;;;;11.24;72.95;102938.25;5065355;28;20045;-75
2023/02/03 11:17:28;;;;;;;9.55;2.65;;;;;;;11.15;73.46;102934.34;5053135;28;20374;-73
2023/02/03 11:20:05;;;;;;;8.38;3.25;;;;;;;11.12;73.79;102932.09;5059496;28;20063;-73
2023/02/03 11:22:36;;;;;;;6.07;2.55;;;;;;;11.12;74.49;102932.09;5035085;28;20059;-74
2023/02/03 11:25:15;;;;;;;6.65;3.17;;;;;;;11.44;73.72;102939.53;5058146;28;20052;-74
2023/02/03 11:27:44;;;;;;;7.20;3.50;;;;;;;11.37;73.02;102936.16;5063318;28;20045;-74
2023/02/03 11:30:28;;;;;;;9.93;3.72;;;;;;;11.09;73.96;102932.63;5056666;28;20052;-72
2023/02/03 11:32:59;;;;;;;7.97;3.50;;;;;;;11.13;74.42;102925.50;5070910;28;20063;-73
2023/02/03 11:35:30;;;;;;;7.75;3.67;;;;;;;11.35;74.07;102930.88;5061059;28;20052;-74
2023/02/03 11:37:59;;;;;;;7.43;2.42;;;;;;;11.18;74.20;102921.94;5067226;28;20090;-72
2023/02/03 11:40:33;;;;;;;4.93;2.13;;;;;;;11.06;74.75;102926.78;5060385;28;20056;-73
2023/02/03 11:43:16;;;;;;;8.90;3.13;;;;;;;11.08;75.66;102930.13;5052494;28;20048;-75
2023/02/03 11:45:47;;;;;;;7.50;2.60;;;;;;;10.77;76.05;102933.72;5058090;28;20065;-75
2023/02/03 11:48:31;;;;;;;7.63;2.40;;;;;;;10.68;77.11;102932.50;5040970;28;20049;-72
2023/02/03 11:51:16;;;;;;;11.63;3.30;;;;;;;10.46;78.11;102929.78;5060816;28;20052;-74
2023/02/03 11:53:53;;;;;;;7.63;2.42;;;;;;;10.47;78.40;102934.22;5065641;28;20423;-75
2023/02/03 11:56:23;;;;;;;7.45;1.98;;;;;;;10.37;77.99;102936.88;5035921;28;20060;-76